CheckWX is a tool to help pilots better visualize weather data.  It is not intended as a substitute for an official pre-flight weather briefing.

08:12:14 UTC

KPTW METAR
Heritage Field Airport
Pottstown, Pennsylvania, USA
Current

18 mins ago

KPTW 060754Z AUTO 00000KT 10SM OVC110 00/M04 A3016 RMK AO2 SLP214 T00001044
Observed
Dec-6 @ 07:54 UTC
Visibility
10 SM
Flight Rules
VFR
Cloud Levels
  • Overcast at 11,000' AGL
Temperature
C / 32°F
Dewpoint
-4°C / 25°F
Humidity
75%
Altimeter
30.16" Hg
Pressure
1021.32 hPa
Previous

1 hour ago

KPTW 060654Z AUTO 00000KT 10SM CLR M01/M06 A3016 RMK AO2 SLP214 T10061061
Observed
Dec-6 @ 06:54 UTC
Visibility
10 SM
Flight Rules
VFR
Cloud Levels
  • Clear skies
Temperature
-1°C / 30°F
Dewpoint
-6°C / 21°F
Humidity
69%
Altimeter
30.16" Hg
Pressure
1021.32 hPa
Previous

2 hours ago

KPTW 060554Z AUTO 00000KT 10SM CLR 01/M06 A3015 RMK AO2 SLP209 T00061061 10033 20000 51013
Observed
Dec-6 @ 05:54 UTC
Visibility
10 SM
Flight Rules
VFR
Cloud Levels
  • Clear skies
Temperature
C / 34°F
Dewpoint
-6°C / 21°F
Humidity
60%
Altimeter
30.15" Hg
Pressure
1021.02 hPa